createdAt,value
2019-05-30T00:02:11.965Z,0.60
2019-05-30T00:04:41.934Z,0.63
2019-05-30T00:07:14.394Z,0.60
2019-05-30T00:09:45.021Z,0.97
2019-05-30T00:12:15.577Z,0.80
2019-05-30T00:14:47.004Z,0.70
2019-05-30T00:17:17.469Z,0.70
2019-05-30T00:19:49.349Z,0.60
2019-05-30T00:22:19.974Z,0.80
2019-05-30T00:24:51.011Z,0.83
2019-05-30T00:27:21.885Z,1.43
2019-05-30T00:29:51.825Z,0.93
2019-05-30T00:32:22.369Z,1.00
2019-05-30T00:34:53.409Z,0.60
2019-05-30T00:37:23.809Z,1.07
2019-05-30T00:39:55.704Z,1.10
2019-05-30T00:42:27.866Z,0.90
2019-05-30T00:44:59.970Z,1.20
2019-05-30T00:47:30.618Z,1.00
2019-05-30T00:50:02.463Z,1.07
2019-05-30T00:52:33.152Z,0.90
2019-05-30T00:55:04.786Z,0.63
2019-05-30T00:57:36.785Z,0.73
2019-05-30T01:00:07.206Z,0.80
2019-05-30T01:02:37.805Z,0.77
2019-05-30T01:05:08.325Z,0.73
2019-05-30T01:07:41.817Z,0.87
2019-05-30T01:10:11.889Z,0.70
2019-05-30T01:12:42.051Z,1.07
2019-05-30T01:15:12.546Z,0.70
2019-05-30T01:17:44.442Z,0.80
2019-05-30T01:20:15.765Z,1.07
2019-05-30T01:22:45.690Z,0.90
2019-05-30T01:25:16.630Z,1.10
2019-05-30T01:27:46.953Z,0.87
2019-05-30T01:30:17.585Z,0.83
2019-05-30T01:32:49.070Z,0.70
2019-05-30T01:35:20.079Z,0.60
2019-05-30T01:37:50.533Z,0.70
2019-05-30T01:40:24.341Z,0.80
2019-05-30T01:42:54.770Z,0.60
2019-05-30T01:45:26.301Z,0.80
2019-05-30T01:47:58.191Z,0.60
2019-05-30T01:50:28.668Z,0.60
2019-05-30T01:53:00.794Z,0.70
2019-05-30T01:55:32.225Z,0.80
2019-05-30T01:58:03.235Z,0.70
2019-05-30T02:00:40.711Z,0.90
2019-05-30T02:03:12.256Z,1.00
2019-05-30T02:05:42.737Z,0.80
2019-05-30T02:08:14.268Z,0.93
2019-05-30T02:10:46.961Z,1.00
2019-05-30T02:13:17.250Z,1.20
2019-05-30T02:15:49.766Z,0.80
2019-05-30T02:18:20.181Z,0.80
2019-05-30T02:20:51.153Z,0.70
2019-05-30T02:23:22.397Z,0.97
2019-05-30T02:25:53.413Z,1.30
2019-05-30T02:28:24.087Z,1.00
2019-05-30T02:30:55.638Z,0.90
2019-05-30T02:33:26.066Z,1.03
2019-05-30T02:35:57.149Z,0.80
2019-05-30T02:38:28.278Z,1.00
2019-05-30T02:41:01.109Z,0.80
2019-05-30T02:43:32.764Z,0.93
2019-05-30T02:46:03.578Z,0.90
2019-05-30T02:48:35.221Z,0.87
2019-05-30T02:51:07.787Z,0.83
2019-05-30T02:53:38.439Z,1.10
2019-05-30T02:56:10.178Z,1.00
2019-05-30T02:58:41.909Z,0.90
2019-05-30T03:01:14.964Z,0.80
2019-05-30T03:03:44.763Z,1.10
2019-05-30T03:06:14.970Z,1.10
2019-05-30T03:08:45.849Z,0.90
2019-05-30T03:11:16.284Z,0.90
2019-05-30T03:13:56.561Z,0.80
2019-05-30T03:16:27.077Z,0.90
2019-05-30T03:18:58.618Z,0.80
2019-05-30T03:21:29.085Z,0.80
2019-05-30T03:23:59.621Z,1.20
2019-05-30T03:26:29.916Z,0.80
2019-05-30T03:29:05.017Z,0.80
2019-05-30T03:31:37.866Z,1.00
2019-05-30T03:34:16.952Z,0.80
2019-05-30T03:36:41.833Z,1.00
2019-05-30T03:39:15.383Z,1.03
2019-05-30T03:41:55.587Z,1.00
2019-05-30T03:44:26.013Z,0.90
2019-05-30T03:46:59.716Z,0.97
2019-05-30T03:49:30.997Z,1.17
2019-05-30T03:52:04.657Z,0.70
2019-05-30T03:54:35.739Z,0.80
2019-05-30T03:57:13.982Z,0.70
2019-05-30T03:59:47.238Z,0.90
2019-05-30T04:02:23.549Z,0.77
2019-05-30T04:04:58.457Z,0.80
2019-05-30T04:07:32.214Z,0.83
2019-05-30T04:10:07.275Z,0.73
2019-05-30T04:12:43.284Z,0.97
2019-05-30T04:15:18.717Z,0.80
2019-05-30T04:17:48.499Z,0.90
2019-05-30T04:20:22.549Z,1.00
2019-05-30T04:22:52.341Z,0.97
2019-05-30T04:25:22.363Z,0.93
2019-05-30T04:27:52.235Z,0.77
2019-05-30T04:30:22.679Z,0.80
2019-05-30T04:32:54.198Z,0.70
2019-05-30T04:35:24.670Z,1.03
2019-05-30T04:37:54.764Z,0.73
2019-05-30T04:40:25.193Z,0.80
2019-05-30T04:42:55.513Z,1.00
2019-05-30T04:45:28.002Z,0.90
2019-05-30T04:47:57.542Z,0.80
2019-05-30T04:50:37.949Z,0.80
2019-05-30T04:53:07.816Z,0.70
2019-05-30T04:55:39.286Z,1.07
2019-05-30T04:58:52.829Z,1.10
2019-05-30T05:01:24.109Z,1.10
2019-05-30T05:03:56.177Z,0.90
2019-05-30T05:06:27.898Z,1.10
2019-05-30T05:08:58.674Z,0.97
2019-05-30T05:11:28.542Z,0.87
2019-05-30T05:13:58.938Z,1.00
2019-05-30T05:16:35.582Z,1.03
2019-05-30T05:19:01.401Z,0.90
2019-05-30T05:21:32.341Z,0.70
2019-05-30T05:24:02.190Z,0.80
2019-05-30T05:26:33.185Z,0.90
2019-05-30T05:29:04.809Z,0.73
2019-05-30T05:31:36.761Z,1.00
2019-05-30T05:34:07.586Z,0.90
2019-05-30T05:36:38.009Z,0.90
2019-05-30T05:39:08.781Z,1.20
2019-05-30T05:41:41.066Z,0.70
2019-05-30T05:44:11.530Z,0.80
2019-05-30T05:46:42.033Z,0.97
2019-05-30T05:49:12.413Z,1.40
2019-05-30T05:51:43.040Z,1.20
2019-05-30T05:54:13.421Z,1.10
2019-05-30T05:56:43.565Z,1.10
2019-05-30T05:59:14.545Z,0.90
2019-05-30T06:01:45.001Z,1.00
2019-05-30T06:04:17.181Z,0.90
2019-05-30T06:06:48.213Z,0.90
2019-05-30T06:09:20.510Z,0.73
2019-05-30T06:11:50.410Z,1.03
2019-05-30T06:14:21.773Z,1.33
2019-05-30T06:16:55.600Z,0.97
2019-05-30T06:19:25.330Z,1.00
2019-05-30T06:21:56.442Z,1.20
2019-05-30T06:24:27.908Z,0.80
2019-05-30T06:26:58.253Z,1.00
2019-05-30T06:29:29.269Z,0.80
2019-05-30T06:32:00.724Z,0.93
2019-05-30T06:34:38.980Z,0.77
2019-05-30T06:37:04.495Z,1.37
2019-05-30T06:39:36.257Z,1.50
2019-05-30T06:42:06.613Z,1.00
2019-05-30T06:44:36.999Z,1.20
2019-05-30T06:47:06.645Z,1.03
2019-05-30T06:49:36.483Z,1.00
2019-05-30T06:52:06.412Z,0.90
2019-05-30T06:54:39.279Z,0.70
2019-05-30T06:57:10.559Z,0.83
2019-05-30T06:59:42.679Z,1.20
2019-05-30T07:02:13.909Z,1.00
2019-05-30T07:04:51.607Z,0.70
2019-05-30T07:07:17.197Z,1.07
2019-05-30T07:09:49.391Z,1.00
2019-05-30T07:12:20.263Z,0.87
2019-05-30T07:14:50.657Z,0.90
2019-05-30T07:17:25.230Z,1.10
2019-05-30T07:19:56.021Z,0.80
2019-05-30T07:22:29.725Z,1.07
2019-05-30T07:25:06.613Z,1.07
2019-05-30T07:27:37.597Z,0.80
2019-05-30T07:30:09.054Z,0.97
2019-05-30T07:32:39.285Z,1.20
2019-05-30T07:35:09.912Z,1.10
2019-05-30T07:37:40.703Z,0.70
2019-05-30T07:40:11.366Z,1.03
2019-05-30T07:42:43.282Z,1.00
2019-05-30T07:45:14.870Z,1.60
2019-05-30T07:47:45.925Z,0.90
2019-05-30T07:50:17.565Z,1.27
2019-05-30T07:52:48.625Z,1.13
2019-05-30T07:55:19.290Z,1.00
2019-05-30T07:57:52.890Z,0.80
2019-05-30T08:00:23.446Z,0.80
2019-05-30T08:02:54.997Z,0.90
2019-05-30T08:05:26.641Z,1.20
2019-05-30T08:07:59.981Z,1.17
2019-05-30T08:10:30.333Z,0.90
2019-05-30T08:13:01.149Z,1.07
2019-05-30T08:15:33.518Z,0.87
2019-05-30T08:18:03.987Z,1.17
2019-05-30T08:20:41.500Z,0.90
2019-05-30T08:23:19.601Z,0.90
2019-05-30T08:25:52.121Z,1.50
2019-05-30T08:28:25.545Z,0.73
2019-05-30T08:30:57.623Z,1.30
2019-05-30T08:33:29.464Z,1.00
2019-05-30T08:36:00.697Z,1.20
2019-05-30T08:38:33.337Z,1.40
2019-05-30T08:41:13.701Z,1.00
2019-05-30T08:43:48.057Z,0.83
2019-05-30T08:46:21.182Z,1.17
2019-05-30T08:49:01.848Z,1.30
2019-05-30T08:51:42.989Z,1.10
2019-05-30T08:54:14.806Z,0.80
2019-05-30T08:56:55.198Z,0.80
2019-05-30T08:59:27.578Z,1.10
2019-05-30T09:02:17.169Z,1.77
2019-05-30T09:05:01.537Z,1.03
2019-05-30T09:07:32.191Z,1.30
2019-05-30T09:10:05.326Z,1.30
2019-05-30T09:12:36.438Z,0.93
2019-05-30T09:15:08.729Z,0.77
2019-05-30T09:17:39.343Z,0.83
2019-05-30T09:20:10.716Z,1.13
2019-05-30T09:22:41.890Z,1.10
2019-05-30T09:25:12.595Z,1.33
2019-05-30T09:27:44.678Z,1.27
2019-05-30T09:30:17.949Z,0.87
2019-05-30T09:32:50.568Z,1.10
2019-05-30T09:35:25.799Z,1.27
2019-05-30T09:37:57.853Z,1.27
2019-05-30T09:40:28.164Z,1.10
2019-05-30T09:42:58.606Z,1.20
2019-05-30T09:45:29.617Z,1.10
2019-05-30T09:48:07.465Z,1.10
2019-05-30T09:50:42.023Z,2.17
2019-05-30T09:53:20.945Z,1.40
2019-05-30T09:55:56.630Z,0.90
2019-05-30T09:58:30.859Z,1.23
2019-05-30T10:01:05.949Z,1.10
2019-05-30T10:03:42.014Z,1.27
2019-05-30T10:06:28.410Z,1.03
2019-05-30T10:08:53.311Z,0.80
2019-05-30T10:11:23.846Z,1.00
2019-05-30T10:13:56.949Z,1.30
2019-05-30T10:16:27.953Z,1.00
2019-05-30T10:18:58.902Z,1.20
2019-05-30T10:21:29.906Z,1.27
2019-05-30T10:23:59.545Z,0.93
2019-05-30T10:26:29.917Z,0.93
2019-05-30T10:29:02.710Z,1.23
2019-05-30T10:31:34.141Z,1.00
2019-05-30T10:34:04.842Z,1.10
2019-05-30T10:36:44.211Z,1.07
2019-05-30T10:39:10.362Z,0.93
2019-05-30T10:41:41.849Z,1.20
2019-05-30T10:44:13.073Z,1.10
2019-05-30T10:46:42.996Z,1.00
2019-05-30T10:49:14.140Z,1.45
2019-05-30T10:51:46.136Z,1.10
2019-05-30T10:54:17.078Z,0.80
2019-05-30T10:56:55.718Z,1.27
2019-05-30T10:59:28.135Z,0.80
2019-05-30T11:02:00.469Z,0.80
2019-05-30T11:04:31.805Z,0.90
2019-05-30T11:07:11.683Z,1.10
2019-05-30T11:09:46.630Z,1.07
2019-05-30T11:12:17.154Z,0.80
2019-05-30T11:14:48.300Z,0.90
2019-05-30T11:17:21.494Z,0.85
2019-05-30T11:19:52.071Z,0.90
2019-05-30T11:22:26.739Z,0.93
2019-05-30T11:24:59.351Z,1.52
2019-05-30T11:27:30.217Z,0.93
2019-05-30T11:30:01.250Z,0.78
2019-05-30T11:32:33.525Z,1.15
2019-05-30T11:35:06.642Z,0.98
2019-05-30T11:37:38.649Z,1.10
2019-05-30T11:40:21.370Z,0.88
2019-05-30T11:42:53.493Z,0.95
2019-05-30T11:45:25.451Z,1.20
2019-05-30T11:47:55.897Z,1.00
2019-05-30T11:50:28.945Z,0.80
2019-05-30T11:53:00.166Z,0.85
2019-05-30T11:55:33.269Z,0.88
2019-05-30T11:58:03.188Z,1.30
2019-05-30T12:00:33.116Z,1.07
2019-05-30T12:03:03.432Z,1.10
2019-05-30T12:05:34.425Z,0.90
2019-05-30T12:08:04.825Z,1.05
2019-05-30T12:10:36.159Z,1.02
2019-05-30T12:13:06.687Z,1.47
2019-05-30T12:15:37.629Z,1.05
2019-05-30T12:18:08.625Z,1.00
2019-05-30T12:20:40.089Z,1.27
2019-05-30T12:23:11.033Z,1.07
2019-05-30T12:25:41.937Z,0.98
2019-05-30T12:28:12.267Z,1.10
2019-05-30T12:30:55.987Z,0.93
2019-05-30T12:33:16.693Z,1.20
2019-05-30T12:35:47.061Z,0.93
2019-05-30T12:38:18.905Z,1.17
2019-05-30T12:40:50.396Z,1.27
2019-05-30T12:43:20.785Z,1.52
2019-05-30T12:45:51.505Z,2.17
2019-05-30T12:48:22.769Z,1.10
2019-05-30T12:50:53.410Z,1.30
2019-05-30T12:53:29.916Z,1.10
2019-05-30T12:56:00.808Z,1.05
2019-05-30T12:58:34.338Z,1.10
2019-05-30T13:01:05.294Z,1.10
2019-05-30T13:03:35.782Z,1.10
2019-05-30T13:06:07.448Z,1.25
2019-05-30T13:08:38.409Z,1.45
2019-05-30T13:11:08.982Z,1.10
2019-05-30T13:13:40.496Z,1.20
2019-05-30T13:16:11.837Z,1.47
2019-05-30T13:18:45.450Z,1.05
2019-05-30T13:21:15.434Z,0.98
2019-05-30T13:23:46.489Z,1.13
2019-05-30T13:26:16.483Z,0.98
2019-05-30T13:28:47.545Z,1.55
2019-05-30T13:31:18.238Z,1.43
2019-05-30T13:33:49.749Z,1.17
2019-05-30T13:36:24.550Z,1.10
2019-05-30T13:38:55.160Z,1.27
2019-05-30T13:41:25.306Z,1.10
2019-05-30T13:43:58.137Z,1.30
2019-05-30T13:46:28.586Z,1.15
2019-05-30T13:49:00.808Z,1.50
2019-05-30T13:51:35.854Z,1.30
2019-05-30T13:54:07.297Z,1.10
2019-05-30T13:56:38.208Z,1.57
2019-05-30T13:59:09.870Z,1.20
2019-05-30T14:01:41.071Z,1.13
2019-05-30T14:04:12.049Z,1.30
2019-05-30T14:06:42.221Z,1.10
2019-05-30T14:09:13.712Z,1.47
2019-05-30T14:11:44.383Z,1.20
2019-05-30T14:14:19.826Z,1.50
2019-05-30T14:16:51.199Z,1.07
2019-05-30T14:19:43.313Z,1.50
2019-05-30T14:22:13.717Z,1.60
2019-05-30T14:24:44.187Z,1.60
2019-05-30T14:27:15.371Z,1.40
2019-05-30T14:29:45.270Z,1.50
2019-05-30T14:32:15.641Z,1.20
2019-05-30T14:34:46.050Z,1.10
2019-05-30T14:37:17.494Z,2.10
2019-05-30T14:39:48.402Z,1.40
2019-05-30T14:42:18.296Z,1.40
2019-05-30T14:44:50.883Z,1.40
2019-05-30T14:47:21.334Z,1.00
2019-05-30T14:49:54.769Z,1.53
2019-05-30T14:52:25.686Z,1.03
2019-05-30T14:54:56.629Z,1.47
2019-05-30T14:57:26.973Z,1.20
2019-05-30T14:59:57.242Z,1.50
2019-05-30T15:02:29.271Z,1.40
2019-05-30T15:04:59.645Z,1.13
2019-05-30T15:07:30.905Z,1.80
2019-05-30T15:10:01.753Z,1.80
2019-05-30T15:12:33.725Z,1.20
2019-05-30T15:15:04.256Z,1.70
2019-05-30T15:17:35.771Z,1.50
2019-05-30T15:20:07.524Z,1.67
2019-05-30T15:22:38.973Z,1.50
2019-05-30T15:25:12.074Z,1.40
2019-05-30T15:27:42.775Z,1.57
2019-05-30T15:30:16.680Z,1.57
2019-05-30T15:32:47.790Z,1.40
2019-05-30T15:35:19.204Z,1.63
2019-05-30T15:37:50.846Z,1.60
2019-05-30T15:40:20.710Z,1.93
2019-05-30T15:42:53.110Z,1.40
2019-05-30T15:45:23.829Z,1.30
2019-05-30T15:47:54.714Z,1.30
2019-05-30T15:50:31.277Z,1.40
2019-05-30T15:53:02.202Z,1.13
2019-05-30T15:55:36.516Z,1.83
2019-05-30T15:58:06.505Z,1.53
2019-05-30T16:00:37.140Z,1.73
2019-05-30T16:03:07.714Z,1.73
2019-05-30T16:05:38.105Z,1.57
2019-05-30T16:08:12.546Z,2.03
2019-05-30T16:10:43.513Z,1.30
2019-05-30T16:13:15.119Z,1.40
2019-05-30T16:15:45.754Z,1.60
2019-05-30T16:18:15.743Z,1.80
2019-05-30T16:20:47.033Z,1.50
2019-05-30T16:23:20.461Z,1.73
2019-05-30T16:25:51.106Z,1.33
2019-05-30T16:28:21.817Z,1.57
2019-05-30T16:30:53.791Z,1.50
2019-05-30T16:33:24.821Z,1.80
2019-05-30T16:35:55.229Z,1.50
2019-05-30T16:38:26.472Z,1.20
2019-05-30T16:40:56.877Z,2.10
2019-05-30T16:43:27.953Z,1.30
2019-05-30T16:46:01.004Z,2.10
2019-05-30T16:48:32.917Z,2.23
2019-05-30T16:51:05.277Z,1.53
2019-05-30T16:53:37.789Z,2.03
2019-05-30T16:56:08.143Z,1.37
2019-05-30T16:58:43.382Z,1.60
2019-05-30T17:01:13.369Z,1.57
2019-05-30T17:03:44.313Z,1.60
2019-05-30T17:06:15.866Z,1.57
2019-05-30T17:08:46.265Z,1.60
2019-05-30T17:11:17.341Z,1.37
2019-05-30T17:13:50.261Z,1.93
2019-05-30T17:16:22.134Z,1.20
2019-05-30T17:18:53.113Z,1.50
2019-05-30T17:21:22.952Z,1.50
2019-05-30T17:23:54.449Z,1.83
2019-05-30T17:26:25.565Z,1.63
2019-05-30T17:28:56.058Z,1.50
2019-05-30T17:31:26.348Z,1.50
2019-05-30T17:33:56.961Z,1.57
2019-05-30T17:36:26.843Z,1.50
2019-05-30T17:38:56.861Z,1.60
2019-05-30T17:41:28.999Z,1.67
2019-05-30T17:43:58.872Z,1.90
2019-05-30T17:46:31.673Z,1.37
2019-05-30T17:49:01.937Z,1.23
2019-05-30T17:51:33.649Z,1.57
2019-05-30T17:54:08.030Z,1.60
2019-05-30T17:56:38.959Z,1.60
2019-05-30T17:59:10.434Z,1.63
2019-05-30T18:01:40.677Z,1.50
2019-05-30T18:04:13.653Z,1.37
2019-05-30T18:06:44.534Z,1.50
2019-05-30T18:09:14.966Z,1.43
2019-05-30T18:11:45.419Z,1.37
2019-05-30T18:14:15.406Z,1.40
2019-05-30T18:16:45.920Z,1.47
2019-05-30T18:19:16.021Z,1.57
2019-05-30T18:21:46.963Z,1.30
2019-05-30T18:24:17.519Z,1.13
2019-05-30T18:26:47.923Z,1.47
2019-05-30T18:29:19.135Z,1.10
2019-05-30T18:31:50.554Z,1.60
2019-05-30T18:34:22.295Z,1.50
2019-05-30T18:36:53.658Z,1.30
2019-05-30T18:39:24.661Z,1.47
2019-05-30T18:41:54.423Z,1.93
2019-05-30T18:44:26.718Z,1.50
2019-05-30T18:46:58.160Z,1.77
2019-05-30T18:49:29.682Z,1.70
2019-05-30T18:52:00.986Z,1.13
2019-05-30T18:54:33.013Z,1.47
2019-05-30T18:57:03.581Z,1.90
2019-05-30T18:59:33.693Z,1.60
2019-05-30T19:02:04.736Z,1.30
2019-05-30T19:04:36.117Z,1.93
2019-05-30T19:07:06.529Z,1.50
2019-05-30T19:09:37.502Z,1.70
2019-05-30T19:12:08.889Z,1.40
2019-05-30T19:14:39.886Z,1.90
2019-05-30T19:17:09.860Z,1.77
2019-05-30T19:19:40.313Z,1.90
2019-05-30T19:22:10.769Z,1.43
2019-05-30T19:24:44.224Z,1.90
2019-05-30T19:27:24.317Z,1.37
2019-05-30T19:29:54.187Z,1.73
2019-05-30T19:32:26.400Z,1.63
2019-05-30T19:34:58.929Z,1.80
2019-05-30T19:37:33.135Z,1.77
2019-05-30T19:40:03.614Z,1.70
2019-05-30T19:42:35.527Z,1.47
2019-05-30T19:45:07.099Z,1.73
2019-05-30T19:47:39.542Z,1.60
2019-05-30T19:50:12.310Z,1.77
2019-05-30T19:52:46.705Z,1.63
2019-05-30T19:55:15.450Z,1.90
2019-05-30T19:57:47.326Z,1.70
2019-05-30T20:00:19.994Z,2.00
2019-05-30T20:02:51.577Z,1.67
2019-05-30T20:05:22.048Z,1.67
2019-05-30T20:07:52.558Z,1.47
2019-05-30T20:10:23.062Z,1.50
2019-05-30T20:12:54.329Z,1.67
2019-05-30T20:15:25.618Z,2.17
2019-05-30T20:17:55.989Z,2.00
2019-05-30T20:20:27.734Z,1.50
2019-05-30T20:22:59.001Z,1.90
2019-05-30T20:25:29.945Z,1.67
2019-05-30T20:28:02.361Z,2.30
2019-05-30T20:30:32.919Z,1.93
2019-05-30T20:33:04.336Z,1.70
2019-05-30T20:35:38.396Z,1.80
2019-05-30T20:38:08.434Z,2.20
2019-05-30T20:40:38.915Z,1.90
2019-05-30T20:43:08.997Z,1.70
2019-05-30T20:45:45.642Z,1.93
2019-05-30T20:48:12.536Z,1.97
2019-05-30T20:50:43.262Z,2.00
2019-05-30T20:53:14.005Z,2.27
2019-05-30T20:55:48.513Z,1.63
2019-05-30T20:58:19.441Z,2.00
2019-05-30T21:00:50.867Z,2.27
2019-05-30T21:03:21.907Z,2.33
2019-05-30T21:05:54.385Z,2.20
2019-05-30T21:08:24.909Z,2.20
2019-05-30T21:10:56.194Z,2.20
2019-05-30T21:13:28.506Z,2.10
2019-05-30T21:16:01.539Z,1.90
2019-05-30T21:18:37.740Z,1.97
2019-05-30T21:21:09.084Z,2.33
2019-05-30T21:23:42.302Z,2.40
2019-05-30T21:26:12.407Z,2.37
2019-05-30T21:28:43.441Z,2.30
2019-05-30T21:31:13.913Z,2.40
2019-05-30T21:33:46.045Z,2.43
2019-05-30T21:36:19.379Z,2.20
2019-05-30T21:38:49.753Z,1.60
2019-05-30T21:41:29.725Z,2.03
2019-05-30T21:44:01.629Z,1.97
2019-05-30T21:46:33.657Z,2.00
2019-05-30T21:49:03.803Z,2.30
2019-05-30T21:51:34.229Z,2.47
2019-05-30T21:54:04.780Z,1.80
2019-05-30T21:56:35.629Z,2.70
2019-05-30T21:59:06.014Z,2.63
2019-05-30T22:01:42.519Z,2.00
2019-05-30T22:04:12.992Z,2.27
2019-05-30T22:06:43.047Z,1.97
2019-05-30T22:09:18.589Z,2.60
2019-05-30T22:11:49.715Z,2.20
2019-05-30T22:14:20.373Z,2.27
2019-05-30T22:16:52.205Z,2.00
2019-05-30T22:19:23.756Z,2.07
2019-05-30T22:21:54.167Z,2.10
2019-05-30T22:24:25.626Z,2.30
2019-05-30T22:26:56.633Z,2.47
2019-05-30T22:29:26.959Z,2.17
2019-05-30T22:31:57.749Z,2.20
2019-05-30T22:34:28.218Z,2.03
2019-05-30T22:36:58.761Z,2.50
2019-05-30T22:39:29.621Z,2.17
2019-05-30T22:42:01.562Z,2.00
2019-05-30T22:44:33.042Z,2.03
2019-05-30T22:47:03.423Z,2.40
2019-05-30T22:49:35.800Z,2.17
2019-05-30T22:52:06.369Z,2.00
2019-05-30T22:54:37.765Z,2.30
2019-05-30T22:57:08.761Z,1.97
2019-05-30T22:59:39.122Z,1.80
2019-05-30T23:02:09.078Z,2.47
2019-05-30T23:04:38.973Z,2.03
2019-05-30T23:07:09.830Z,2.67
2019-05-30T23:09:39.851Z,2.30
2019-05-30T23:12:10.267Z,2.30
2019-05-30T23:14:40.659Z,2.23
2019-05-30T23:17:11.753Z,2.20
2019-05-30T23:19:42.683Z,2.10
2019-05-30T23:22:12.623Z,1.87
2019-05-30T23:24:42.557Z,2.10
2019-05-30T23:27:12.953Z,1.90
2019-05-30T23:29:43.353Z,2.10
2019-05-30T23:32:17.203Z,2.07
2019-05-30T23:34:48.794Z,1.80
2019-05-30T23:37:20.154Z,1.57
2019-05-30T23:39:50.786Z,1.70
2019-05-30T23:42:20.873Z,1.63
2019-05-30T23:44:53.340Z,1.50
2019-05-30T23:47:23.819Z,1.40
2019-05-30T23:49:55.862Z,1.50
2019-05-30T23:52:25.861Z,1.47
2019-05-30T23:54:58.350Z,1.53
2019-05-30T23:57:31.587Z,1.60
